sensor_id;sensor_type;location;lat;lon;timestamp;pressure;altitude;pressure_sealevel;temperature;humidity
15263;BME280;7733;51.554;13.590;2023-06-10T00:01:45;100312.06;;;22.99;53.92
15263;BME280;7733;51.554;13.590;2023-06-10T00:04:15;100309.00;;;23.18;54.08
15263;BME280;7733;51.554;13.590;2023-06-10T00:06:45;100321.69;;;22.89;54.58
15263;BME280;7733;51.554;13.590;2023-06-10T00:09:13;100319.38;;;22.41;56.51
15263;BME280;7733;51.554;13.590;2023-06-10T00:11:41;100314.41;;;22.76;55.42
15263;BME280;7733;51.554;13.590;2023-06-10T00:14:07;100328.75;;;22.75;55.46
15263;BME280;7733;51.554;13.590;2023-06-10T00:16:33;100321.69;;;22.74;55.56
15263;BME280;7733;51.554;13.590;2023-06-10T00:19:00;100322.53;;;22.75;56.07
15263;BME280;7733;51.554;13.590;2023-06-10T00:21:27;100327.16;;;22.59;56.66
15263;BME280;7733;51.554;13.590;2023-06-10T00:23:54;100323.28;;;22.50;57.04
15263;BME280;7733;51.554;13.590;2023-06-10T00:26:24;100324.91;;;22.94;55.29
15263;BME280;7733;51.554;13.590;2023-06-10T00:28:50;100333.34;;;22.18;58.56
15263;BME280;7733;51.554;13.590;2023-06-10T00:31:16;100329.09;;;22.42;57.23
15263;BME280;7733;51.554;13.590;2023-06-10T00:33:42;100332.59;;;22.71;56.79
15263;BME280;7733;51.554;13.590;2023-06-10T00:36:08;100322.63;;;22.88;55.62
15263;BME280;7733;51.554;13.590;2023-06-10T00:38:34;100330.91;;;22.42;57.74
15263;BME280;7733;51.554;13.590;2023-06-10T00:41:00;100330.56;;;22.20;58.56
15263;BME280;7733;51.554;13.590;2023-06-10T00:43:26;100341.34;;;22.18;58.38
15263;BME280;7733;51.554;13.590;2023-06-10T00:45:52;100343.31;;;22.57;57.01
15263;BME280;7733;51.554;13.590;2023-06-10T00:48:18;100345.44;;;22.38;58.46
15263;BME280;7733;51.554;13.590;2023-06-10T00:50:46;100346.44;;;22.23;58.73
15263;BME280;7733;51.554;13.590;2023-06-10T00:53:12;100344.69;;;22.36;58.47
15263;BME280;7733;51.554;13.590;2023-06-10T00:55:38;100346.03;;;22.29;58.85
15263;BME280;7733;51.554;13.590;2023-06-10T00:58:04;100340.28;;;22.35;58.65
15263;BME280;7733;51.554;13.590;2023-06-10T01:00:30;100347.59;;;22.04;60.25
15263;BME280;7733;51.554;13.590;2023-06-10T01:02:56;100351.97;;;22.05;60.99
15263;BME280;7733;51.554;13.590;2023-06-10T01:05:23;100341.19;;;22.07;60.16
15263;BME280;7733;51.554;13.590;2023-06-10T01:08:15;100352.25;;;21.56;62.96
15263;BME280;7733;51.554;13.590;2023-06-10T01:11:07;100341.41;;;21.74;62.04
15263;BME280;7733;51.554;13.590;2023-06-10T01:13:40;100346.59;;;21.91;61.86
15263;BME280;7733;51.554;13.590;2023-06-10T01:16:07;100342.72;;;21.52;63.45
15263;BME280;7733;51.554;13.590;2023-06-10T01:18:33;100340.53;;;21.59;63.73
15263;BME280;7733;51.554;13.590;2023-06-10T01:20:59;100340.66;;;21.12;66.23
15263;BME280;7733;51.554;13.590;2023-06-10T01:23:24;100330.88;;;20.81;68.04
15263;BME280;7733;51.554;13.590;2023-06-10T01:26:09;100335.50;;;21.09;66.27
15263;BME280;7733;51.554;13.590;2023-06-10T01:29:15;100327.56;;;21.23;65.50
15263;BME280;7733;51.554;13.590;2023-06-10T01:31:49;100332.13;;;21.51;64.66
15263;BME280;7733;51.554;13.590;2023-06-10T01:34:18;100336.94;;;20.69;68.82
15263;BME280;7733;51.554;13.590;2023-06-10T01:36:47;100338.97;;;20.79;68.95
15263;BME280;7733;51.554;13.590;2023-06-10T01:39:16;100339.59;;;20.84;68.97
15263;BME280;7733;51.554;13.590;2023-06-10T01:41:43;100348.56;;;21.29;66.15
15263;BME280;7733;51.554;13.590;2023-06-10T01:44:10;100340.00;;;20.61;69.67
15263;BME280;7733;51.554;13.590;2023-06-10T01:46:36;100347.22;;;21.06;67.77
15263;BME280;7733;51.554;13.590;2023-06-10T01:49:02;100345.72;;;21.16;66.69
15263;BME280;7733;51.554;13.590;2023-06-10T01:51:27;100346.75;;;21.30;66.26
15263;BME280;7733;51.554;13.590;2023-06-10T01:53:53;100350.09;;;21.33;65.57
15263;BME280;7733;51.554;13.590;2023-06-10T01:56:19;100349.00;;;21.51;64.83
15263;BME280;7733;51.554;13.590;2023-06-10T01:58:48;100358.47;;;21.11;67.20
15263;BME280;7733;51.554;13.590;2023-06-10T02:01:14;100349.72;;;20.93;68.02
15263;BME280;7733;51.554;13.590;2023-06-10T02:03:40;100350.50;;;20.80;68.56
15263;BME280;7733;51.554;13.590;2023-06-10T02:06:06;100351.53;;;20.77;68.41
15263;BME280;7733;51.554;13.590;2023-06-10T02:08:32;100351.81;;;21.18;66.09
15263;BME280;7733;51.554;13.590;2023-06-10T02:10:58;100350.28;;;21.14;66.48
15263;BME280;7733;51.554;13.590;2023-06-10T02:13:23;100359.19;;;21.45;65.04
15263;BME280;7733;51.554;13.590;2023-06-10T02:15:49;100359.16;;;21.15;66.70
15263;BME280;7733;51.554;13.590;2023-06-10T02:18:15;100354.28;;;20.60;68.54
15263;BME280;7733;51.554;13.590;2023-06-10T02:20:41;100360.09;;;21.14;66.05
15263;BME280;7733;51.554;13.590;2023-06-10T02:23:06;100368.00;;;21.15;66.09
15263;BME280;7733;51.554;13.590;2023-06-10T02:25:32;100370.50;;;21.18;66.35
15263;BME280;7733;51.554;13.590;2023-06-10T02:27:58;100396.09;;;21.07;67.00
15263;BME280;7733;51.554;13.590;2023-06-10T02:30:24;100388.00;;;20.77;67.98
15263;BME280;7733;51.554;13.590;2023-06-10T02:32:49;100389.28;;;21.01;67.54
15263;BME280;7733;51.554;13.590;2023-06-10T02:35:17;100389.03;;;21.06;67.02
15263;BME280;7733;51.554;13.590;2023-06-10T02:37:43;100395.53;;;21.16;66.13
15263;BME280;7733;51.554;13.590;2023-06-10T02:40:10;100397.22;;;21.03;66.41
15263;BME280;7733;51.554;13.590;2023-06-10T02:42:36;100407.28;;;20.66;68.65
15263;BME280;7733;51.554;13.590;2023-06-10T02:45:03;100409.50;;;21.05;67.02
15263;BME280;7733;51.554;13.590;2023-06-10T02:47:29;100406.41;;;20.81;67.79
15263;BME280;7733;51.554;13.590;2023-06-10T02:49:55;100414.72;;;20.59;67.89
15263;BME280;7733;51.554;13.590;2023-06-10T02:52:21;100405.03;;;21.06;65.58
15263;BME280;7733;51.554;13.590;2023-06-10T02:54:46;100412.69;;;20.80;67.46
15263;BME280;7733;51.554;13.590;2023-06-10T02:57:12;100408.91;;;20.69;68.01
15263;BME280;7733;51.554;13.590;2023-06-10T02:59:40;100415.16;;;20.99;66.05
15263;BME280;7733;51.554;13.590;2023-06-10T03:02:06;100406.03;;;21.19;65.43
15263;BME280;7733;51.554;13.590;2023-06-10T03:04:31;100408.97;;;20.99;66.85
15263;BME280;7733;51.554;13.590;2023-06-10T03:06:57;100408.91;;;20.69;67.52
15263;BME280;7733;51.554;13.590;2023-06-10T03:09:23;100416.03;;;20.52;68.73
15263;BME280;7733;51.554;13.590;2023-06-10T03:11:49;100406.03;;;20.56;68.11
15263;BME280;7733;51.554;13.590;2023-06-10T03:14:14;100413.19;;;20.38;69.59
15263;BME280;7733;51.554;13.590;2023-06-10T03:16:40;100412.53;;;20.68;67.41
15263;BME280;7733;51.554;13.590;2023-06-10T03:19:06;100415.94;;;20.54;68.73
15263;BME280;7733;51.554;13.590;2023-06-10T03:21:36;100417.06;;;20.50;69.56
15263;BME280;7733;51.554;13.590;2023-06-10T03:24:03;100413.47;;;20.33;70.31
15263;BME280;7733;51.554;13.590;2023-06-10T03:26:29;100414.31;;;20.51;69.24
15263;BME280;7733;51.554;13.590;2023-06-10T03:28:55;100414.91;;;20.23;71.04
15263;BME280;7733;51.554;13.590;2023-06-10T03:31:20;100412.84;;;20.77;67.83
15263;BME280;7733;51.554;13.590;2023-06-10T03:33:46;100412.94;;;20.76;67.87
15263;BME280;7733;51.554;13.590;2023-06-10T03:36:12;100416.88;;;20.53;69.44
15263;BME280;7733;51.554;13.590;2023-06-10T03:38:38;100418.59;;;20.54;68.70
15263;BME280;7733;51.554;13.590;2023-06-10T03:41:03;100427.47;;;20.70;68.23
15263;BME280;7733;51.554;13.590;2023-06-10T03:43:29;100425.16;;;20.80;67.75
15263;BME280;7733;51.554;13.590;2023-06-10T03:45:56;100428.78;;;20.13;71.84
15263;BME280;7733;51.554;13.590;2023-06-10T03:48:22;100426.16;;;20.28;70.83
15263;BME280;7733;51.554;13.590;2023-06-10T03:50:48;100423.09;;;20.36;70.65
15263;BME280;7733;51.554;13.590;2023-06-10T03:53:16;100426.53;;;20.38;71.08
15263;BME280;7733;51.554;13.590;2023-06-10T03:55:42;100423.09;;;20.69;69.21
15263;BME280;7733;51.554;13.590;2023-06-10T03:58:08;100426.97;;;20.79;68.21
15263;BME280;7733;51.554;13.590;2023-06-10T04:00:33;100423.88;;;20.71;68.99
15263;BME280;7733;51.554;13.590;2023-06-10T04:03:08;100424.63;;;20.73;69.00
15263;BME280;7733;51.554;13.590;2023-06-10T04:05:35;100428.06;;;20.44;70.98
15263;BME280;7733;51.554;13.590;2023-06-10T04:08:01;100432.63;;;20.73;69.83
15263;BME280;7733;51.554;13.590;2023-06-10T04:10:27;100433.81;;;20.34;71.79
15263;BME280;7733;51.554;13.590;2023-06-10T04:12:53;100433.66;;;20.55;70.78
15263;BME280;7733;51.554;13.590;2023-06-10T04:15:19;100437.38;;;20.68;69.92
15263;BME280;7733;51.554;13.590;2023-06-10T04:17:45;100436.50;;;20.99;67.90
15263;BME280;7733;51.554;13.590;2023-06-10T04:20:11;100442.72;;;20.18;73.32
15263;BME280;7733;51.554;13.590;2023-06-10T04:22:37;100437.09;;;20.73;70.21
15263;BME280;7733;51.554;13.590;2023-06-10T04:25:03;100430.72;;;20.44;71.89
15263;BME280;7733;51.554;13.590;2023-06-10T04:27:29;100435.66;;;20.83;69.80
15263;BME280;7733;51.554;13.590;2023-06-10T04:29:55;100438.22;;;21.00;69.24
15263;BME280;7733;51.554;13.590;2023-06-10T04:32:21;100441.84;;;20.68;71.21
15263;BME280;7733;51.554;13.590;2023-06-10T04:34:47;100435.81;;;20.80;70.67
15263;BME280;7733;51.554;13.590;2023-06-10T04:37:13;100437.03;;;21.06;69.33
15263;BME280;7733;51.554;13.590;2023-06-10T04:39:38;100442.78;;;20.98;69.70
15263;BME280;7733;51.554;13.590;2023-06-10T04:42:04;100445.97;;;20.73;71.80
15263;BME280;7733;51.554;13.590;2023-06-10T04:44:31;100445.47;;;20.98;70.48
15263;BME280;7733;51.554;13.590;2023-06-10T04:46:56;100447.84;;;20.55;72.81
15263;BME280;7733;51.554;13.590;2023-06-10T04:49:22;100445.81;;;21.23;69.05
15263;BME280;7733;51.554;13.590;2023-06-10T04:51:48;100446.47;;;20.80;71.52
15263;BME280;7733;51.554;13.590;2023-06-10T04:54:14;100445.47;;;20.67;72.58
15263;BME280;7733;51.554;13.590;2023-06-10T04:56:39;100452.78;;;20.94;71.13
15263;BME280;7733;51.554;13.590;2023-06-10T04:59:05;100455.19;;;20.99;70.87
15263;BME280;7733;51.554;13.590;2023-06-10T05:01:31;100455.38;;;21.28;69.76
15263;BME280;7733;51.554;13.590;2023-06-10T05:03:56;100450.78;;;20.98;70.82
15263;BME280;7733;51.554;13.590;2023-06-10T05:06:22;100450.81;;;20.82;71.93
15263;BME280;7733;51.554;13.590;2023-06-10T05:08:48;100462.44;;;21.29;69.73
15263;BME280;7733;51.554;13.590;2023-06-10T05:11:13;100463.91;;;21.34;69.71
15263;BME280;7733;51.554;13.590;2023-06-10T05:13:41;100457.50;;;21.21;70.75
15263;BME280;7733;51.554;13.590;2023-06-10T05:16:08;100462.44;;;21.44;69.68
15263;BME280;7733;51.554;13.590;2023-06-10T05:18:34;100458.63;;;21.48;69.75
15263;BME280;7733;51.554;13.590;2023-06-10T05:21:01;100461.72;;;21.41;69.94
15263;BME280;7733;51.554;13.590;2023-06-10T05:23:28;100458.69;;;21.63;69.42
15263;BME280;7733;51.554;13.590;2023-06-10T05:25:54;100466.19;;;21.86;68.57
15263;BME280;7733;51.554;13.590;2023-06-10T05:28:20;100467.81;;;21.89;68.26
15263;BME280;7733;51.554;13.590;2023-06-10T05:30:46;100463.78;;;21.81;68.31
15263;BME280;7733;51.554;13.590;2023-06-10T05:33:11;100468.88;;;22.00;66.82
15263;BME280;7733;51.554;13.590;2023-06-10T05:35:37;100460.94;;;22.14;66.48
15263;BME280;7733;51.554;13.590;2023-06-10T05:38:03;100469.59;;;22.04;67.35
15263;BME280;7733;51.554;13.590;2023-06-10T05:40:29;100472.50;;;21.99;67.89
15263;BME280;7733;51.554;13.590;2023-06-10T05:42:55;100471.63;;;22.14;67.37
15263;BME280;7733;51.554;13.590;2023-06-10T05:45:20;100464.03;;;22.23;67.12
15263;BME280;7733;51.554;13.590;2023-06-10T05:47:46;100467.81;;;22.04;67.81
15263;BME280;7733;51.554;13.590;2023-06-10T05:50:12;100463.91;;;22.38;66.88
15263;BME280;7733;51.554;13.590;2023-06-10T05:52:37;100466.88;;;22.62;65.50
15263;BME280;7733;51.554;13.590;2023-06-10T05:55:06;100470.31;;;22.78;64.66
15263;BME280;7733;51.554;13.590;2023-06-10T05:57:32;100468.00;;;22.15;67.87
15263;BME280;7733;51.554;13.590;2023-06-10T05:59:58;100464.78;;;21.95;69.17
15263;BME280;7733;51.554;13.590;2023-06-10T06:02:24;100463.63;;;22.57;65.76
15263;BME280;7733;51.554;13.590;2023-06-10T06:04:50;100468.91;;;22.87;64.28
15263;BME280;7733;51.554;13.590;2023-06-10T06:07:15;100467.00;;;22.46;65.68
15263;BME280;7733;51.554;13.590;2023-06-10T06:09:41;100469.38;;;22.51;65.33
15263;BME280;7733;51.554;13.590;2023-06-10T06:12:08;100464.59;;;22.70;65.04
15263;BME280;7733;51.554;13.590;2023-06-10T06:14:37;100471.59;;;22.87;64.77
15263;BME280;7733;51.554;13.590;2023-06-10T06:17:07;100469.00;;;22.86;64.44
15263;BME280;7733;51.554;13.590;2023-06-10T06:19:33;100471.94;;;22.24;66.60
15263;BME280;7733;51.554;13.590;2023-06-10T06:21:59;100469.53;;;22.05;67.85
15263;BME280;7733;51.554;13.590;2023-06-10T06:24:25;100475.66;;;22.78;66.45
15263;BME280;7733;51.554;13.590;2023-06-10T06:26:50;100477.91;;;22.86;65.66
15263;BME280;7733;51.554;13.590;2023-06-10T06:29:16;100470.81;;;22.71;66.83
15263;BME280;7733;51.554;13.590;2023-06-10T06:31:42;100475.97;;;22.45;67.12
15263;BME280;7733;51.554;13.590;2023-06-10T06:34:08;100471.47;;;22.46;67.48
15263;BME280;7733;51.554;13.590;2023-06-10T06:36:33;100462.22;;;23.21;64.13
15263;BME280;7733;51.554;13.590;2023-06-10T06:38:59;100474.06;;;23.31;64.52
15263;BME280;7733;51.554;13.590;2023-06-10T06:41:28;100478.41;;;23.47;62.82
15263;BME280;7733;51.554;13.590;2023-06-10T06:43:55;100471.28;;;23.60;62.32
15263;BME280;7733;51.554;13.590;2023-06-10T06:46:21;100479.06;;;23.77;61.64
15263;BME280;7733;51.554;13.590;2023-06-10T06:48:48;100477.78;;;23.70;61.93
15263;BME280;7733;51.554;13.590;2023-06-10T06:51:14;100475.22;;;23.81;61.51
15263;BME280;7733;51.554;13.590;2023-06-10T06:53:40;100475.06;;;24.10;60.75
15263;BME280;7733;51.554;13.590;2023-06-10T06:56:13;100473.22;;;23.97;61.04
15263;BME280;7733;51.554;13.590;2023-06-10T06:58:39;100475.59;;;24.15;60.64
15263;BME280;7733;51.554;13.590;2023-06-10T07:01:05;100486.84;;;24.20;60.89
15263;BME280;7733;51.554;13.590;2023-06-10T07:03:31;100476.56;;;24.14;60.30
15263;BME280;7733;51.554;13.590;2023-06-10T07:05:57;100483.88;;;24.24;60.88
15263;BME280;7733;51.554;13.590;2023-06-10T07:08:23;100481.75;;;24.68;59.79
15263;BME280;7733;51.554;13.590;2023-06-10T07:10:49;100480.84;;;24.16;61.69
15263;BME280;7733;51.554;13.590;2023-06-10T07:13:15;100472.06;;;24.78;58.33
15263;BME280;7733;51.554;13.590;2023-06-10T07:15:41;100483.19;;;24.97;57.65
15263;BME280;7733;51.554;13.590;2023-06-10T07:18:06;100488.03;;;24.92;57.46
15263;BME280;7733;51.554;13.590;2023-06-10T07:20:32;100482.22;;;24.98;57.37
15263;BME280;7733;51.554;13.590;2023-06-10T07:22:58;100486.72;;;25.47;56.20
15263;BME280;7733;51.554;13.590;2023-06-10T07:25:23;100495.69;;;25.35;56.21
15263;BME280;7733;51.554;13.590;2023-06-10T07:27:49;100495.22;;;25.41;55.83
15263;BME280;7733;51.554;13.590;2023-06-10T07:30:15;100495.78;;;25.57;55.70
15263;BME280;7733;51.554;13.590;2023-06-10T07:32:41;100491.16;;;25.35;56.12
15263;BME280;7733;51.554;13.590;2023-06-10T07:35:09;100495.53;;;25.73;55.06
15263;BME280;7733;51.554;13.590;2023-06-10T07:37:38;100502.09;;;25.93;54.55
15263;BME280;7733;51.554;13.590;2023-06-10T07:40:04;100495.50;;;25.97;54.60
15263;BME280;7733;51.554;13.590;2023-06-10T07:42:34;100495.56;;;26.19;53.32
15263;BME280;7733;51.554;13.590;2023-06-10T07:45:00;100493.63;;;26.32;53.15
15263;BME280;7733;51.554;13.590;2023-06-10T07:47:26;100498.97;;;26.56;52.00
15263;BME280;7733;51.554;13.590;2023-06-10T07:49:51;100486.97;;;26.83;51.77
15263;BME280;7733;51.554;13.590;2023-06-10T07:52:17;100491.75;;;26.79;51.33
15263;BME280;7733;51.554;13.590;2023-06-10T07:54:43;100492.25;;;26.84;49.95
15263;BME280;7733;51.554;13.590;2023-06-10T07:57:08;100488.34;;;27.00;49.17
15263;BME280;7733;51.554;13.590;2023-06-10T07:59:35;100494.91;;;27.18;48.59
15263;BME280;7733;51.554;13.590;2023-06-10T08:02:00;100490.78;;;27.03;49.10
15263;BME280;7733;51.554;13.590;2023-06-10T08:04:26;100489.59;;;27.50;47.94
15263;BME280;7733;51.554;13.590;2023-06-10T08:06:52;100492.53;;;27.47;47.83
15263;BME280;7733;51.554;13.590;2023-06-10T08:09:18;100486.38;;;27.56;47.19
15263;BME280;7733;51.554;13.590;2023-06-10T08:11:46;100497.28;;;27.54;47.27
15263;BME280;7733;51.554;13.590;2023-06-10T08:14:12;100492.88;;;27.65;45.90
15263;BME280;7733;51.554;13.590;2023-06-10T08:16:38;100488.72;;;27.93;46.07
15263;BME280;7733;51.554;13.590;2023-06-10T08:19:03;100491.13;;;28.28;45.71
15263;BME280;7733;51.554;13.590;2023-06-10T08:21:29;100494.94;;;28.46;45.06
15263;BME280;7733;51.554;13.590;2023-06-10T08:23:55;100493.88;;;28.37;45.20
15263;BME280;7733;51.554;13.590;2023-06-10T08:26:21;100490.00;;;28.30;45.37
15263;BME280;7733;51.554;13.590;2023-06-10T08:28:46;100489.72;;;28.85;43.97
15263;BME280;7733;51.554;13.590;2023-06-10T08:31:12;100493.84;;;28.58;43.79
15263;BME280;7733;51.554;13.590;2023-06-10T08:33:38;100493.53;;;29.13;43.27
15263;BME280;7733;51.554;13.590;2023-06-10T08:36:04;100497.81;;;28.85;42.57
15263;BME280;7733;51.554;13.590;2023-06-10T08:38:30;100501.19;;;29.07;42.03
15263;BME280;7733;51.554;13.590;2023-06-10T08:41:00;100502.56;;;28.71;42.04
15263;BME280;7733;51.554;13.590;2023-06-10T08:43:44;100493.91;;;29.48;41.20
15263;BME280;7733;51.554;13.590;2023-06-10T08:46:13;100507.22;;;29.30;41.33
15263;BME280;7733;51.554;13.590;2023-06-10T08:48:43;100491.91;;;29.50;40.59
15263;BME280;7733;51.554;13.590;2023-06-10T08:51:13;100499.19;;;29.50;39.83
15263;BME280;7733;51.554;13.590;2023-06-10T08:53:53;100490.22;;;29.88;39.59
15263;BME280;7733;51.554;13.590;2023-06-10T08:56:24;100495.34;;;29.81;39.38
15263;BME280;7733;51.554;13.590;2023-06-10T08:58:52;100494.22;;;29.74;39.18
15263;BME280;7733;51.554;13.590;2023-06-10T09:01:19;100491.06;;;30.27;38.49
15263;BME280;7733;51.554;13.590;2023-06-10T09:03:45;100491.22;;;29.87;38.52
15263;BME280;7733;51.554;13.590;2023-06-10T09:06:12;100490.91;;;29.80;38.94
15263;BME280;7733;51.554;13.590;2023-06-10T09:08:39;100486.50;;;29.79;38.78
15263;BME280;7733;51.554;13.590;2023-06-10T09:11:05;100487.06;;;30.31;38.69
15263;BME280;7733;51.554;13.590;2023-06-10T09:13:32;100481.09;;;30.27;37.17
15263;BME280;7733;51.554;13.590;2023-06-10T09:15:57;100489.91;;;30.20;37.07
15263;BME280;7733;51.554;13.590;2023-06-10T09:18:28;100485.84;;;30.63;37.77
15263;BME280;7733;51.554;13.590;2023-06-10T09:20:53;100488.53;;;30.72;36.34
15263;BME280;7733;51.554;13.590;2023-06-10T09:23:19;100481.78;;;30.86;35.29
15263;BME280;7733;51.554;13.590;2023-06-10T09:25:45;100479.31;;;30.93;35.79
15263;BME280;7733;51.554;13.590;2023-06-10T09:28:15;100482.91;;;30.83;34.88
15263;BME280;7733;51.554;13.590;2023-06-10T09:30:41;100485.06;;;30.80;35.22
15263;BME280;7733;51.554;13.590;2023-06-10T09:33:14;100483.88;;;31.20;35.43
15263;BME280;7733;51.554;13.590;2023-06-10T09:35:49;100483.63;;;31.13;35.05
15263;BME280;7733;51.554;13.590;2023-06-10T09:38:20;100485.81;;;30.72;35.92
15263;BME280;7733;51.554;13.590;2023-06-10T09:40:50;100477.38;;;30.85;35.98
15263;BME280;7733;51.554;13.590;2023-06-10T09:43:17;100484.34;;;30.87;36.67
15263;BME280;7733;51.554;13.590;2023-06-10T09:45:43;100477.19;;;31.24;36.51
15263;BME280;7733;51.554;13.590;2023-06-10T09:48:09;100473.63;;;31.13;36.37
15263;BME280;7733;51.554;13.590;2023-06-10T09:50:41;100469.31;;;31.21;36.44
15263;BME280;7733;51.554;13.590;2023-06-10T09:53:07;100470.22;;;31.39;36.38
15263;BME280;7733;51.554;13.590;2023-06-10T09:55:33;100462.09;;;31.57;36.22
15263;BME280;7733;51.554;13.590;2023-06-10T09:58:00;100469.19;;;31.40;35.90
15263;BME280;7733;51.554;13.590;2023-06-10T10:00:26;100467.84;;;31.89;36.18
15263;BME280;7733;51.554;13.590;2023-06-10T10:02:53;100463.25;;;31.90;36.01
15263;BME280;7733;51.554;13.590;2023-06-10T10:05:22;100469.19;;;32.11;35.14
15263;BME280;7733;51.554;13.590;2023-06-10T10:07:48;100469.19;;;32.11;35.38
15263;BME280;7733;51.554;13.590;2023-06-10T10:10:15;100477.72;;;32.16;34.99
15263;BME280;7733;51.554;13.590;2023-06-10T10:12:43;100461.69;;;32.05;34.60
15263;BME280;7733;51.554;13.590;2023-06-10T10:15:12;100466.03;;;32.42;34.41
15263;BME280;7733;51.554;13.590;2023-06-10T10:17:52;100465.78;;;32.09;34.98
15263;BME280;7733;51.554;13.590;2023-06-10T10:20:27;100463.81;;;32.71;34.05
15263;BME280;7733;51.554;13.590;2023-06-10T10:22:57;100461.47;;;33.10;33.52
15263;BME280;7733;51.554;13.590;2023-06-10T10:25:30;100465.50;;;32.64;33.83
15263;BME280;7733;51.554;13.590;2023-06-10T10:28:07;100463.41;;;32.06;34.13
15263;BME280;7733;51.554;13.590;2023-06-10T10:30:42;100467.69;;;31.91;34.17
15263;BME280;7733;51.554;13.590;2023-06-10T10:33:20;100459.97;;;32.48;33.63
15263;BME280;7733;51.554;13.590;2023-06-10T10:35:49;100461.53;;;32.06;34.58
15263;BME280;7733;51.554;13.590;2023-06-10T10:38:16;100463.66;;;32.21;34.23
15263;BME280;7733;51.554;13.590;2023-06-10T10:40:44;100464.22;;;32.24;34.49
15263;BME280;7733;51.554;13.590;2023-06-10T10:43:11;100453.53;;;32.49;33.61
15263;BME280;7733;51.554;13.590;2023-06-10T10:45:38;100450.91;;;32.39;33.63
15263;BME280;7733;51.554;13.590;2023-06-10T10:48:09;100464.03;;;31.64;33.45
15263;BME280;7733;51.554;13.590;2023-06-10T10:50:38;100464.56;;;31.50;33.84
15263;BME280;7733;51.554;13.590;2023-06-10T10:53:05;100452.91;;;32.11;33.74
15263;BME280;7733;51.554;13.590;2023-06-10T10:55:31;100449.63;;;32.51;33.27
15263;BME280;7733;51.554;13.590;2023-06-10T10:58:06;100443.09;;;32.18;33.99
15263;BME280;7733;51.554;13.590;2023-06-10T11:00:34;100446.00;;;32.43;33.82
15263;BME280;7733;51.554;13.590;2023-06-10T11:05:43;100448.84;;;32.33;34.15
15263;BME280;7733;51.554;13.590;2023-06-10T11:08:59;100442.03;;;32.29;34.02
15263;BME280;7733;51.554;13.590;2023-06-10T11:11:00;100443.28;;;33.11;33.70
15263;BME280;7733;51.554;13.590;2023-06-10T11:13:27;100446.31;;;32.65;31.17
15263;BME280;7733;51.554;13.590;2023-06-10T11:15:58;100445.00;;;32.00;31.39
15263;BME280;7733;51.554;13.590;2023-06-10T11:18:35;100437.00;;;32.42;31.93
15263;BME280;7733;51.554;13.590;2023-06-10T11:21:04;100435.44;;;32.31;31.54
15263;BME280;7733;51.554;13.590;2023-06-10T11:23:35;100433.94;;;32.71;31.77
15263;BME280;7733;51.554;13.590;2023-06-10T11:31:43;100423.72;;;31.87;32.26
15263;BME280;7733;51.554;13.590;2023-06-10T11:34:10;100424.06;;;33.12;31.78
15263;BME280;7733;51.554;13.590;2023-06-10T11:36:41;100416.88;;;32.61;29.36
15263;BME280;7733;51.554;13.590;2023-06-10T11:39:09;100415.09;;;32.18;30.36
15263;BME280;7733;51.554;13.590;2023-06-10T11:41:37;100412.34;;;32.35;30.46
15263;BME280;7733;51.554;13.590;2023-06-10T11:44:11;100410.88;;;32.83;31.20
15263;BME280;7733;51.554;13.590;2023-06-10T11:46:37;100412.69;;;33.17;30.30
15263;BME280;7733;51.554;13.590;2023-06-10T11:49:06;100410.38;;;33.38;31.53
15263;BME280;7733;51.554;13.590;2023-06-10T11:51:40;100408.03;;;32.85;30.93
15263;BME280;7733;51.554;13.590;2023-06-10T11:54:09;100409.63;;;32.70;30.84
15263;BME280;7733;51.554;13.590;2023-06-10T11:56:35;100408.47;;;32.72;30.26
15263;BME280;7733;51.554;13.590;2023-06-10T11:59:06;100418.44;;;32.29;28.89
15263;BME280;7733;51.554;13.590;2023-06-10T12:01:44;100403.09;;;32.46;29.47
15263;BME280;7733;51.554;13.590;2023-06-10T12:04:13;100404.06;;;32.79;29.01
15263;BME280;7733;51.554;13.590;2023-06-10T12:11:45;100399.72;;;32.52;26.95
15263;BME280;7733;51.554;13.590;2023-06-10T12:14:13;100395.09;;;33.45;27.27
15263;BME280;7733;51.554;13.590;2023-06-10T12:16:40;100398.16;;;33.58;27.10
15263;BME280;7733;51.554;13.590;2023-06-10T12:19:06;100404.88;;;33.22;28.61
15263;BME280;7733;51.554;13.590;2023-06-10T12:21:33;100405.00;;;32.96;28.81
15263;BME280;7733;51.554;13.590;2023-06-10T12:26:42;100398.03;;;32.85;28.45
15263;BME280;7733;51.554;13.590;2023-06-10T12:29:24;100384.94;;;32.55;28.88
15263;BME280;7733;51.554;13.590;2023-06-10T12:32:01;100375.56;;;32.83;28.86
15263;BME280;7733;51.554;13.590;2023-06-10T12:34:39;100385.63;;;32.91;28.86
15263;BME280;7733;51.554;13.590;2023-06-10T12:37:10;100382.81;;;33.25;27.91
15263;BME280;7733;51.554;13.590;2023-06-10T12:39:40;100386.28;;;32.85;27.47
15263;BME280;7733;51.554;13.590;2023-06-10T12:42:06;100379.59;;;32.79;27.65
15263;BME280;7733;51.554;13.590;2023-06-10T12:44:39;100381.81;;;32.76;27.75
15263;BME280;7733;51.554;13.590;2023-06-10T12:47:10;100375.03;;;32.37;27.04
15263;BME280;7733;51.554;13.590;2023-06-10T12:49:39;100381.47;;;32.79;27.82
15263;BME280;7733;51.554;13.590;2023-06-10T12:52:06;100376.31;;;33.18;26.92
15263;BME280;7733;51.554;13.590;2023-06-10T12:54:32;100364.78;;;33.24;27.30
15263;BME280;7733;51.554;13.590;2023-06-10T12:56:58;100383.97;;;33.22;26.23
15263;BME280;7733;51.554;13.590;2023-06-10T12:59:24;100389.47;;;32.80;26.36
15263;BME280;7733;51.554;13.590;2023-06-10T13:01:54;100387.19;;;33.18;26.62
15263;BME280;7733;51.554;13.590;2023-06-10T13:04:20;100382.47;;;32.35;27.68
15263;BME280;7733;51.554;13.590;2023-06-10T13:06:47;100391.19;;;32.81;27.36
15263;BME280;7733;51.554;13.590;2023-06-10T13:09:15;100386.78;;;32.46;27.46